Sanford, FL

7:36 PM EDT on July 31, 2015 (GMT -0400)
Kaywood Subdivision | | Change Station
CLOSE
Current Station
Personal Weather Station
Location: Sanford, FL
Elevation: 59 ft
Nearby Weather Stations

Elev 59 ft 28.79 °N, 81.33 °W | Updated 4 seconds ago

Partly Cloudy
Partly Cloudy
85.6 °F
Feels Like 83 °F
N
2.0
Wind Variable Wind from WSW
Gusts 6.0 mph

Today
High -- | Low -- °F
--% Chance of Precip.
Yesterday
High -- | Low -- °F
Precip. -- in
6:45 AM 8:17 PM
Full, 100% visible
Pressure 29.93 in
Visibility 10.0 miles
Clouds Few 5000 ft
Heat Index 83 °F
Dew Point Not available.
Humidity Not available.
Rainfall 0.00 in
Snow Depth Not available.
UV 1 out of 12
Pollen .60 out of 12
Air Quality Not available.
Flu Activity Not available.
METAR KSFB 312253Z 21006KT 10SM FEW050 29/22 A2993 RMK AO2 SLP133 T02940217

More Conditions Fewer Conditions

Pressure 29.93 in
Visibility 10.0 miles
Clouds Few 5000 ft
Heat Index 83 °F
Dew Point Not available.
Humidity Not available.
Rainfall 0.00 in
Snow Depth Not available.
UV 1 out of 12
Pollen .60 out of 12
Air Quality Not available.
Flu Activity Not available.
METAR KSFB 312253Z 21006KT 10SM FEW050 29/22 A2993 RMK AO2 SLP133 T02940217

More Conditions Fewer Conditions

10-Day Weather Forecast

×

Almanac

Astronomy

Jul. 31, 2015 Rise Set
Actual Time
Civil Twilight
Nautical Twilight
Astronomical Twilight
Moon
Length of Visible Light
Length of Day
Tomorrow will be .
, % of the Moon is Illuminated

Today's Extremes

State Highs State Lows

Community

WunderPhotos

Upload Photos

1,842,767 photos uploaded!

WunderBlogs® & News

Nearby

Air Quality

  Air Quality AQ Index Pollutant
Not available.

Snow Depth

Station Depth Elevation

Earthquake Activity

City Distance Mag. Time & Date
Minimum magnitude displayed is 2.5.

Coastal Water Temperatures

Place Temperature

Stations

Nearby Weather Stations

Station Location Temp. Windchill Dew Point Humidity Wind Precip. Elev Updated Type